createdAt,value
2023-04-12T00:00:13.476Z,6.05
2023-04-12T00:02:40.534Z,8.15
2023-04-12T00:05:09.588Z,6.00
2023-04-12T00:07:36.102Z,7.10
2023-04-12T00:10:03.470Z,5.53
2023-04-12T00:12:30.227Z,5.47
2023-04-12T00:14:56.652Z,9.27
2023-04-12T00:17:23.321Z,7.82
2023-04-12T00:19:50.139Z,8.35
2023-04-12T00:22:16.851Z,4.63
2023-04-12T00:24:43.672Z,4.25
2023-04-12T00:27:10.408Z,7.28
2023-04-12T00:29:36.858Z,4.75
2023-04-12T00:32:05.485Z,6.80
2023-04-12T00:34:32.035Z,5.90
2023-04-12T00:36:58.490Z,3.38
2023-04-12T00:39:24.930Z,7.00
2023-04-12T00:41:51.759Z,4.38
2023-04-12T00:44:18.408Z,3.83
2023-04-12T00:46:46.479Z,2.85
2023-04-12T00:49:13.533Z,5.10
2023-04-12T00:51:40.603Z,3.85
2023-04-12T00:54:07.734Z,3.97
2023-04-12T00:56:35.033Z,3.67
2023-04-12T00:59:02.098Z,6.80
2023-04-12T01:01:28.696Z,2.33
2023-04-12T01:04:01.027Z,3.28
2023-04-12T01:06:38.593Z,4.47
2023-04-12T01:09:23.771Z,6.25
2023-04-12T01:12:29.072Z,7.75
2023-04-12T01:15:06.082Z,6.32
2023-04-12T01:17:38.178Z,8.95
2023-04-12T01:20:18.551Z,9.63
2023-04-12T01:23:14.945Z,6.75
2023-04-12T01:26:12.070Z,5.78
2023-04-12T01:28:42.545Z,5.88
2023-04-12T01:31:10.318Z,6.15
2023-04-12T01:33:39.480Z,4.40
2023-04-12T01:36:27.582Z,5.13
2023-04-12T01:38:56.302Z,6.38
2023-04-12T01:41:22.991Z,6.10
2023-04-12T01:43:49.421Z,4.35
2023-04-12T01:46:20.419Z,3.60
2023-04-12T01:51:47.503Z,5.35
2023-04-12T01:54:19.616Z,6.05
2023-04-12T01:56:49.912Z,4.20
2023-04-12T01:59:18.162Z,8.35
2023-04-12T02:01:46.648Z,5.80
2023-04-12T02:04:15.845Z,5.55
2023-04-12T02:06:43.630Z,7.35
2023-04-12T02:09:10.262Z,5.25
2023-04-12T02:11:36.812Z,7.05
2023-04-12T02:14:03.244Z,5.63
2023-04-12T02:16:29.783Z,4.80
2023-04-12T02:18:59.388Z,3.35
2023-04-12T02:21:27.801Z,4.60
2023-04-12T02:23:54.821Z,7.43
2023-04-12T02:26:23.351Z,9.52
2023-04-12T02:28:49.828Z,4.72
2023-04-12T02:31:17.045Z,5.35
2023-04-12T02:33:43.818Z,5.25
2023-04-12T02:36:11.556Z,8.98
2023-04-12T02:38:38.129Z,7.28
2023-04-12T02:41:04.723Z,5.13
2023-04-12T02:43:32.709Z,6.90
2023-04-12T02:45:59.421Z,3.25
2023-04-12T02:48:26.059Z,3.58
2023-04-12T02:50:52.524Z,5.43
2023-04-12T02:53:19.101Z,6.18
2023-04-12T02:55:45.520Z,7.03
2023-04-12T02:58:12.814Z,3.35
2023-04-12T03:00:39.216Z,7.63
2023-04-12T03:03:06.498Z,6.47
2023-04-12T03:05:33.155Z,3.67
2023-04-12T03:07:59.545Z,3.53
2023-04-12T03:10:26.069Z,5.53
2023-04-12T03:12:52.531Z,7.30
2023-04-12T03:15:18.966Z,4.05
2023-04-12T03:17:45.727Z,8.60
2023-04-12T03:20:13.457Z,4.22
2023-04-12T03:22:40.095Z,6.78
2023-04-12T03:25:06.911Z,5.68
2023-04-12T03:27:33.286Z,6.53
2023-04-12T03:29:59.684Z,6.80
2023-04-12T03:32:26.361Z,3.80
2023-04-12T03:34:52.871Z,7.78
2023-04-12T03:37:19.593Z,7.90
2023-04-12T03:39:48.116Z,6.57
2023-04-12T03:42:29.334Z,4.50
2023-04-12T03:44:58.552Z,5.35
2023-04-12T03:47:25.092Z,4.30
2023-04-12T03:50:10.153Z,5.18
2023-04-12T03:52:38.250Z,6.05
2023-04-12T03:55:07.029Z,6.28
2023-04-12T03:57:33.428Z,5.38
2023-04-12T04:00:00.038Z,5.53
2023-04-12T04:02:27.466Z,4.97
2023-04-12T04:04:54.184Z,5.10
2023-04-12T04:07:21.915Z,4.10
2023-04-12T04:09:49.903Z,5.88
2023-04-12T04:12:16.787Z,6.85
2023-04-12T04:14:43.347Z,7.97
2023-04-12T04:17:09.765Z,4.00
2023-04-12T04:19:36.189Z,4.07
2023-04-12T04:22:03.002Z,4.05
2023-04-12T04:24:29.925Z,4.32
2023-04-12T04:26:56.329Z,5.95
2023-04-12T04:29:23.650Z,3.97
2023-04-12T04:31:50.748Z,4.75
2023-04-12T04:34:18.973Z,5.55
2023-04-12T04:36:45.490Z,4.60
2023-04-12T04:39:11.964Z,8.20
2023-04-12T04:41:39.530Z,5.10
2023-04-12T04:44:09.328Z,4.75
2023-04-12T04:46:39.650Z,6.53
2023-04-12T04:49:06.569Z,5.80
2023-04-12T04:51:33.413Z,4.90
2023-04-12T04:54:00.449Z,4.97
2023-04-12T04:56:26.946Z,3.42
2023-04-12T04:58:56.327Z,4.82
2023-04-12T05:01:28.239Z,5.40
2023-04-12T05:03:55.791Z,5.25
2023-04-12T05:06:22.918Z,4.35
2023-04-12T05:08:49.409Z,4.85
2023-04-12T05:11:15.935Z,4.68
2023-04-12T05:13:42.382Z,5.95
2023-04-12T05:16:09.239Z,3.45
2023-04-12T05:18:35.898Z,8.02
2023-04-12T05:21:05.939Z,4.45
2023-04-12T05:23:38.020Z,3.63
2023-04-12T05:26:04.889Z,5.15
2023-04-12T05:28:31.445Z,4.72
2023-04-12T05:30:58.311Z,6.57
2023-04-12T05:33:25.153Z,4.95
2023-04-12T05:35:51.627Z,5.15
2023-04-12T05:38:18.133Z,5.15
2023-04-12T05:40:44.573Z,6.20
2023-04-12T05:43:14.036Z,6.50
2023-04-12T05:45:41.543Z,5.30
2023-04-12T05:48:08.618Z,5.38
2023-04-12T05:50:35.350Z,4.50
2023-04-12T05:53:02.570Z,5.32
2023-04-12T05:55:30.030Z,5.25
2023-04-12T05:57:57.590Z,5.32
2023-04-12T06:00:24.283Z,3.60
2023-04-12T06:02:52.267Z,5.15
2023-04-12T06:05:19.513Z,4.43
2023-04-12T06:07:49.350Z,5.97
2023-04-12T06:10:17.378Z,5.40
2023-04-12T06:12:44.630Z,3.33
2023-04-12T06:15:11.430Z,4.18
2023-04-12T06:17:38.330Z,6.35
2023-04-12T06:20:09.734Z,3.25
2023-04-12T06:22:37.234Z,5.22
2023-04-12T06:25:04.283Z,3.58
2023-04-12T06:27:31.051Z,5.40
2023-04-12T06:29:58.161Z,5.13
2023-04-12T06:32:25.835Z,4.95
2023-04-12T06:34:53.670Z,6.28
2023-04-12T06:37:21.936Z,3.95
2023-04-12T06:39:48.411Z,3.13
2023-04-12T06:42:15.700Z,5.70
2023-04-12T06:44:42.335Z,4.57
2023-04-12T06:47:09.430Z,4.50
2023-04-12T06:49:36.032Z,4.50
2023-04-12T06:52:02.562Z,4.75
2023-04-12T06:54:29.069Z,5.63
2023-04-12T06:56:57.295Z,4.82
2023-04-12T06:59:23.945Z,6.60
2023-04-12T07:01:50.559Z,4.35
2023-04-12T07:04:17.190Z,5.07
2023-04-12T07:06:43.756Z,5.45
2023-04-12T07:09:10.370Z,5.60
2023-04-12T07:11:37.032Z,6.63
2023-04-12T07:14:03.548Z,5.10
2023-04-12T07:16:31.594Z,5.93
2023-04-12T07:18:59.285Z,7.30
2023-04-12T07:21:27.439Z,6.38
2023-04-12T07:23:54.034Z,6.93
2023-04-12T07:26:21.659Z,7.32
2023-04-12T07:28:48.591Z,7.18
2023-04-12T07:31:15.358Z,7.68
2023-04-12T07:33:43.414Z,7.38
2023-04-12T07:36:11.473Z,7.72
2023-04-12T07:38:38.017Z,5.88
2023-04-12T07:41:04.693Z,7.50
2023-04-12T07:43:31.269Z,7.07
2023-04-12T07:45:57.916Z,8.13
2023-04-12T07:48:24.641Z,6.15
2023-04-12T07:50:51.480Z,6.57
2023-04-12T07:53:20.058Z,8.13
2023-04-12T07:55:47.239Z,7.50
2023-04-12T07:58:13.826Z,8.95
2023-04-12T08:00:40.521Z,7.20
2023-04-12T08:03:07.279Z,9.93
2023-04-12T08:05:34.763Z,7.32
2023-04-12T08:08:01.975Z,7.45
2023-04-12T08:10:29.520Z,7.60
2023-04-12T08:12:55.986Z,10.82
2023-04-12T08:15:22.477Z,9.10
2023-04-12T08:17:49.130Z,7.97
2023-04-12T08:20:16.005Z,9.00
2023-04-12T08:22:43.239Z,10.30
2023-04-12T08:25:10.572Z,7.53
2023-04-12T08:27:39.576Z,11.15
2023-04-12T08:30:07.256Z,11.38
2023-04-12T08:32:34.851Z,9.95
2023-04-12T08:35:02.447Z,11.55
2023-04-12T08:37:28.877Z,11.18
2023-04-12T08:39:55.724Z,15.70
2023-04-12T08:42:22.313Z,11.27
2023-04-12T08:44:51.071Z,7.32
2023-04-12T08:47:17.571Z,12.02
2023-04-12T08:49:44.266Z,11.65
2023-04-12T08:52:11.210Z,11.38
2023-04-12T08:54:38.118Z,12.57
2023-04-12T08:57:08.157Z,12.70
2023-04-12T08:59:39.325Z,20.33
2023-04-12T09:02:05.902Z,10.40
2023-04-12T09:04:32.516Z,10.95
2023-04-12T09:06:59.109Z,13.38
2023-04-12T09:09:55.136Z,12.18
2023-04-12T09:12:24.021Z,15.23
2023-04-12T09:15:13.859Z,16.45
2023-04-12T09:17:41.965Z,14.30
2023-04-12T09:20:28.790Z,17.27
2023-04-12T09:22:55.786Z,12.57
2023-04-12T09:25:40.597Z,14.32
2023-04-12T09:28:25.912Z,21.92
2023-04-12T09:30:58.343Z,14.65
2023-04-12T09:33:38.550Z,17.50
2023-04-12T09:36:09.202Z,15.00
2023-04-12T09:41:20.751Z,15.10
2023-04-12T09:43:49.077Z,9.88
2023-04-12T09:46:16.636Z,14.38
2023-04-12T09:48:51.307Z,11.20
2023-04-12T09:51:51.772Z,12.40
2023-04-12T09:54:18.485Z,9.68
2023-04-12T09:56:46.018Z,11.68
2023-04-12T09:59:14.340Z,10.07
2023-04-12T10:01:41.789Z,13.48
2023-04-12T10:04:10.374Z,15.75
2023-04-12T10:06:37.500Z,10.50
2023-04-12T10:09:04.660Z,16.42
2023-04-12T10:11:33.977Z,13.88
2023-04-12T10:14:02.848Z,11.50
2023-04-12T10:16:30.828Z,8.07
2023-04-12T10:19:01.642Z,12.35
2023-04-12T10:23:54.965Z,14.40
2023-04-12T10:26:21.575Z,13.40
2023-04-12T10:29:24.405Z,16.40
2023-04-12T10:31:53.114Z,9.02
2023-04-12T10:34:26.824Z,13.50
2023-04-12T10:36:56.039Z,14.98
2023-04-12T10:39:42.582Z,14.93
2023-04-12T10:42:29.803Z,14.93
2023-04-12T10:45:31.219Z,13.15
2023-04-12T10:48:01.988Z,13.90
2023-04-12T10:50:32.803Z,14.45
2023-04-12T10:53:18.222Z,14.27
2023-04-12T10:55:45.613Z,16.65
2023-04-12T10:58:50.036Z,15.70
2023-04-12T11:01:18.694Z,15.30
2023-04-12T11:04:10.683Z,12.38
2023-04-12T11:07:11.944Z,18.30
2023-04-12T11:09:42.072Z,13.90
2023-04-12T11:12:10.969Z,14.95
2023-04-12T11:14:51.387Z,10.88
2023-04-12T11:17:17.943Z,10.98
2023-04-12T11:19:46.751Z,11.13
2023-04-12T11:22:15.545Z,13.68
2023-04-12T11:24:46.635Z,13.75
2023-04-12T11:27:13.391Z,15.25
2023-04-12T11:29:40.484Z,11.43
2023-04-12T11:32:15.520Z,18.42
2023-04-12T11:34:47.428Z,10.20
2023-04-12T11:37:14.514Z,10.25
2023-04-12T11:39:45.431Z,14.13
2023-04-12T11:42:16.935Z,10.70
2023-04-12T11:44:57.326Z,12.43
2023-04-12T11:47:26.876Z,11.88
2023-04-12T11:49:55.783Z,8.35
2023-04-12T11:52:29.522Z,7.72
2023-04-12T11:54:58.871Z,11.73
2023-04-12T11:57:25.527Z,11.20
2023-04-12T11:59:52.757Z,11.60
2023-04-12T12:02:23.846Z,9.68
2023-04-12T12:04:51.677Z,8.80
2023-04-12T12:07:19.719Z,10.15
2023-04-12T12:09:47.046Z,7.13
2023-04-12T12:12:14.440Z,7.00
2023-04-12T12:14:41.232Z,10.18
2023-04-12T12:17:15.881Z,5.40
2023-04-12T12:19:45.462Z,9.57
2023-04-12T12:22:12.093Z,9.15
2023-04-12T12:24:44.375Z,6.65
2023-04-12T12:27:10.826Z,6.93
2023-04-12T12:29:38.036Z,7.93
2023-04-12T12:32:16.846Z,12.52
2023-04-12T12:34:54.446Z,7.20
2023-04-12T12:37:24.451Z,8.63
2023-04-12T12:40:01.061Z,7.63
2023-04-12T12:42:28.109Z,5.72
2023-04-12T12:44:54.491Z,7.13
2023-04-12T12:47:21.022Z,5.80
2023-04-12T12:49:47.520Z,4.45
2023-04-12T12:52:15.252Z,4.78
2023-04-12T12:54:43.679Z,2.97
2023-04-12T12:57:10.428Z,6.80
2023-04-12T12:59:36.811Z,6.28
2023-04-12T13:02:03.487Z,4.65
2023-04-12T13:04:30.089Z,5.82
2023-04-12T13:06:56.598Z,4.05
2023-04-12T13:09:22.978Z,6.32
2023-04-12T13:11:49.383Z,5.20
2023-04-12T13:14:15.774Z,5.45
2023-04-12T13:16:42.251Z,3.15
2023-04-12T13:19:08.740Z,4.05
2023-04-12T13:21:35.222Z,2.78
2023-04-12T13:24:01.620Z,4.60
2023-04-12T13:26:28.053Z,5.60
2023-04-12T13:28:54.792Z,4.45
2023-04-12T13:31:21.222Z,5.95
2023-04-12T13:33:47.714Z,4.85
2023-04-12T13:36:14.156Z,4.13
2023-04-12T13:38:40.554Z,4.93
2023-04-12T13:41:07.041Z,3.65
2023-04-12T13:43:33.952Z,4.88
2023-04-12T13:46:00.592Z,3.33
2023-04-12T13:48:27.254Z,3.40
2023-04-12T13:50:55.543Z,3.25
2023-04-12T13:53:22.162Z,3.72
2023-04-12T13:55:50.218Z,2.90
2023-04-12T13:58:17.189Z,3.90
2023-04-12T14:00:43.572Z,4.50
2023-04-12T14:03:10.059Z,4.40
2023-04-12T14:05:36.631Z,5.15
2023-04-12T14:08:03.137Z,3.45
2023-04-12T14:10:29.695Z,4.05
2023-04-12T14:12:56.173Z,3.92
2023-04-12T14:15:22.563Z,3.20
2023-04-12T14:17:49.073Z,3.80
2023-04-12T14:20:18.018Z,3.30
2023-04-12T14:22:45.834Z,4.40
2023-04-12T14:25:12.355Z,3.63
2023-04-12T14:27:38.740Z,4.07
2023-04-12T14:30:06.503Z,6.85
2023-04-12T14:32:33.546Z,3.13
2023-04-12T14:35:00.048Z,3.88
2023-04-12T14:37:26.561Z,5.40
2023-04-12T14:39:53.648Z,6.13
2023-04-12T14:42:20.193Z,2.80
2023-04-12T14:44:48.060Z,3.45
2023-04-12T14:47:14.612Z,4.25
2023-04-12T14:49:41.154Z,3.83
2023-04-12T14:52:08.082Z,3.05
2023-04-12T14:54:34.745Z,5.07
2023-04-12T14:57:01.628Z,2.38
2023-04-12T14:59:28.207Z,3.53
2023-04-12T15:01:54.943Z,5.18
2023-04-12T15:04:21.561Z,1.65
2023-04-12T15:06:48.054Z,4.63
2023-04-12T15:09:17.492Z,3.83
2023-04-12T15:11:46.267Z,3.47
2023-04-12T15:14:19.853Z,4.03
2023-04-12T15:16:49.135Z,3.65
2023-04-12T15:19:20.872Z,3.03
2023-04-12T15:21:51.223Z,2.85
2023-04-12T15:24:18.866Z,3.85
2023-04-12T15:26:48.201Z,1.95
2023-04-12T15:29:18.611Z,4.22
2023-04-12T15:31:45.582Z,4.70
2023-04-12T15:34:13.362Z,4.32
2023-04-12T15:36:46.005Z,3.17
2023-04-12T15:39:14.674Z,2.50
2023-04-12T15:41:42.737Z,3.40
2023-04-12T15:44:11.889Z,2.28
2023-04-12T15:46:42.683Z,2.92
2023-04-12T15:49:10.286Z,2.40
2023-04-12T15:51:37.048Z,2.25
2023-04-12T15:54:05.263Z,3.63
2023-04-12T15:56:32.541Z,3.80
2023-04-12T15:59:01.188Z,3.08
2023-04-12T16:01:28.361Z,3.22
2023-04-12T16:03:55.597Z,4.20
2023-04-12T16:06:22.913Z,3.35
2023-04-12T16:08:54.569Z,1.95
2023-04-12T16:11:23.761Z,2.63
2023-04-12T16:13:51.479Z,3.88
2023-04-12T16:16:21.015Z,2.92
2023-04-12T16:18:47.992Z,3.17
2023-04-12T16:21:21.722Z,2.95
2023-04-12T16:23:50.662Z,4.60
2023-04-12T16:26:22.207Z,2.83
2023-04-12T16:28:54.971Z,2.15
2023-04-12T16:31:22.667Z,2.88
2023-04-12T16:33:49.929Z,4.20
2023-04-12T16:36:16.499Z,2.45
2023-04-12T16:38:46.607Z,3.38
2023-04-12T16:41:13.130Z,4.47
2023-04-12T16:43:39.810Z,2.85
2023-04-12T16:46:07.054Z,3.38
2023-04-12T16:48:35.433Z,2.55
2023-04-12T16:51:02.635Z,2.70
2023-04-12T16:53:31.649Z,2.65
2023-04-12T16:56:04.648Z,2.97
2023-04-12T16:58:31.591Z,5.40
2023-04-12T17:00:58.061Z,2.97
2023-04-12T17:03:25.374Z,3.47
2023-04-12T17:05:52.382Z,5.15
2023-04-12T17:08:18.892Z,4.35
2023-04-12T17:10:45.411Z,5.60
2023-04-12T17:13:12.096Z,3.15
2023-04-12T17:15:38.500Z,3.15
2023-04-12T17:18:10.157Z,5.95
2023-04-12T17:20:37.310Z,1.60
2023-04-12T17:23:04.727Z,4.22
2023-04-12T17:25:31.994Z,9.93
2023-04-12T17:27:59.849Z,13.93
2023-04-12T17:30:26.501Z,18.95
2023-04-12T17:32:53.302Z,22.33
2023-04-12T17:35:20.560Z,18.35
2023-04-12T17:37:47.630Z,19.50
2023-04-12T17:40:15.290Z,13.38
2023-04-12T17:42:44.299Z,11.50
2023-04-12T17:45:12.763Z,8.57
2023-04-12T17:47:43.111Z,6.53
2023-04-12T17:50:11.613Z,4.95
2023-04-12T17:52:38.830Z,3.65
2023-04-12T17:55:07.448Z,3.42
2023-04-12T17:57:33.916Z,4.88
2023-04-12T18:00:00.617Z,5.57
2023-04-12T18:02:27.244Z,4.35
2023-04-12T18:04:54.197Z,4.68
2023-04-12T18:07:21.388Z,3.78
2023-04-12T18:09:48.203Z,5.60
2023-04-12T18:12:14.726Z,3.70
2023-04-12T18:14:41.151Z,5.10
2023-04-12T18:17:08.246Z,3.95
2023-04-12T18:19:40.968Z,4.95
2023-04-12T18:22:07.497Z,5.72
2023-04-12T18:24:34.578Z,7.30
2023-04-12T18:27:04.293Z,5.18
2023-04-12T18:29:30.892Z,5.97
2023-04-12T18:31:58.536Z,6.05
2023-04-12T18:34:25.077Z,4.82
2023-04-12T18:36:51.592Z,4.85
2023-04-12T18:39:18.097Z,4.43
2023-04-12T18:41:44.570Z,4.93
2023-04-12T18:44:13.185Z,3.97
2023-04-12T18:46:40.628Z,4.85
2023-04-12T18:49:08.918Z,17.45
2023-04-12T18:51:36.140Z,14.15
2023-04-12T18:54:02.689Z,8.55
2023-04-12T18:56:29.123Z,5.75
2023-04-12T18:58:56.773Z,7.85
2023-04-12T19:01:24.660Z,6.53
2023-04-12T19:03:51.625Z,8.02
2023-04-12T19:06:18.351Z,7.68
2023-04-12T19:08:45.042Z,8.85
2023-04-12T19:11:11.658Z,11.68
2023-04-12T19:13:38.403Z,7.68
2023-04-12T19:16:08.810Z,10.07
2023-04-12T19:18:35.496Z,8.32
2023-04-12T19:21:02.804Z,6.00
2023-04-12T19:23:30.775Z,9.85
2023-04-12T19:25:59.734Z,9.30
2023-04-12T19:28:27.303Z,8.68
2023-04-12T19:30:54.151Z,10.15
2023-04-12T19:33:21.052Z,10.27
2023-04-12T19:35:47.666Z,10.35
2023-04-12T19:38:15.601Z,6.85
2023-04-12T19:40:42.435Z,12.15
2023-04-12T19:43:09.440Z,9.95
2023-04-12T19:45:36.322Z,10.10
2023-04-12T19:48:02.930Z,7.85
2023-04-12T19:50:30.904Z,8.00
2023-04-12T19:52:57.706Z,7.93
2023-04-12T19:55:25.169Z,7.50
2023-04-12T19:57:51.791Z,7.30
2023-04-12T20:00:25.214Z,6.65
2023-04-12T20:02:54.002Z,10.45
2023-04-12T20:05:23.174Z,10.23
2023-04-12T20:07:49.885Z,12.05
2023-04-12T20:10:16.577Z,8.05
2023-04-12T20:12:44.219Z,12.15
2023-04-12T20:15:11.814Z,12.57
2023-04-12T20:17:42.646Z,11.07
2023-04-12T20:20:11.004Z,9.63
2023-04-12T20:22:39.462Z,8.55
2023-04-12T20:25:06.155Z,8.70
2023-04-12T20:27:33.662Z,8.20
2023-04-12T20:30:00.713Z,7.43
2023-04-12T20:32:27.496Z,8.32
2023-04-12T20:34:54.861Z,8.77
2023-04-12T20:37:21.624Z,9.45
2023-04-12T20:39:47.973Z,6.93
2023-04-12T20:42:16.408Z,7.40
2023-04-12T20:44:42.855Z,7.72
2023-04-12T20:47:10.012Z,8.85
2023-04-12T20:49:36.477Z,7.20
2023-04-12T20:52:12.440Z,6.50
2023-04-12T20:54:38.919Z,3.78
2023-04-12T20:57:05.369Z,4.57
2023-04-12T20:59:32.231Z,8.35
2023-04-12T21:01:59.667Z,5.57
2023-04-12T21:04:27.746Z,5.70
2023-04-12T21:06:57.883Z,6.80
2023-04-12T21:09:24.745Z,5.28
2023-04-12T21:11:52.607Z,6.43
2023-04-12T21:14:19.967Z,3.25
2023-04-12T21:16:48.724Z,4.00
2023-04-12T21:19:16.322Z,5.13
2023-04-12T21:21:43.414Z,4.68
2023-04-12T21:24:09.848Z,5.53
2023-04-12T21:26:36.259Z,10.80
2023-04-12T21:29:02.791Z,3.78
2023-04-12T21:31:29.367Z,4.25
2023-04-12T21:33:59.361Z,4.90
2023-04-12T21:36:30.249Z,3.08
2023-04-12T21:38:58.905Z,2.22
2023-04-12T21:41:25.873Z,2.17
2023-04-12T21:43:52.817Z,3.17
2023-04-12T21:46:19.752Z,4.32
2023-04-12T21:48:46.359Z,2.08
2023-04-12T21:51:12.918Z,1.58
2023-04-12T21:53:39.702Z,3.33
2023-04-12T21:56:06.581Z,3.28
2023-04-12T21:58:33.434Z,2.90
2023-04-12T22:00:59.872Z,2.85
2023-04-12T22:03:27.222Z,2.78
2023-04-12T22:06:03.624Z,2.35
2023-04-12T22:08:33.009Z,2.22
2023-04-12T22:11:00.222Z,1.60
2023-04-12T22:13:27.901Z,1.75
2023-04-12T22:15:54.379Z,1.90
2023-04-12T22:18:20.876Z,3.08
2023-04-12T22:20:47.830Z,2.88
2023-04-12T22:23:18.209Z,3.95
2023-04-12T22:25:45.980Z,1.77
2023-04-12T22:28:12.581Z,4.30
2023-04-12T22:30:39.429Z,2.95
2023-04-12T22:33:08.194Z,3.28
2023-04-12T22:35:35.214Z,3.53
2023-04-12T22:38:01.759Z,2.70
2023-04-12T22:40:28.273Z,3.15
2023-04-12T22:42:56.085Z,2.35
2023-04-12T22:45:22.592Z,3.53
2023-04-12T22:47:49.030Z,5.63
2023-04-12T22:50:15.509Z,5.30
2023-04-12T22:52:42.351Z,3.45
2023-04-12T22:55:11.670Z,2.42
2023-04-12T22:57:38.789Z,2.38
2023-04-12T23:00:06.215Z,2.70
2023-04-12T23:02:33.851Z,2.63
2023-04-12T23:05:00.865Z,2.63
2023-04-12T23:07:29.898Z,4.38
2023-04-12T23:09:57.373Z,2.97
2023-04-12T23:12:24.463Z,4.20
2023-04-12T23:14:51.261Z,3.25
2023-04-12T23:17:19.693Z,3.35
2023-04-12T23:19:46.374Z,5.75
2023-04-12T23:22:40.691Z,3.92
2023-04-12T23:25:16.796Z,3.40
2023-04-12T23:27:43.568Z,2.08
2023-04-12T23:30:11.506Z,1.88
2023-04-12T23:32:38.297Z,5.75
2023-04-12T23:35:05.121Z,4.05
2023-04-12T23:37:33.350Z,5.10
2023-04-12T23:40:05.434Z,4.28
2023-04-12T23:42:33.087Z,2.10
2023-04-12T23:44:59.919Z,3.10
2023-04-12T23:47:27.061Z,4.70
2023-04-12T23:49:53.552Z,4.43
2023-04-12T23:52:20.038Z,4.45
2023-04-12T23:54:46.439Z,2.20
2023-04-12T23:57:12.925Z,3.13
2023-04-12T23:59:39.317Z,3.58
